Time;durP1;ratioP1;P1;durP2;ratioP2;P2;SDS_P1;SDS_P2;PMS_P1;PMS_P2;Temp;Humidity;BMP_temperature;BMP_pressure;BME280_temperature;BME280_humidity;BME280_pressure;Samples;Min_cycle;Max_cycle;Signal;HPM_P1;HPM_P2
2021/10/14 00:00:36;;;;;;;11.02;3.70;;;;;;;3.86;98.46;99698.69;5064015;28;20025;-84
2021/10/14 00:03:01;;;;;;;11.73;3.78;;;;;;;3.86;98.19;99707.34;5064968;28;20052;-84
2021/10/14 00:05:26;;;;;;;10.27;3.65;;;;;;;3.75;97.89;99703.63;5065151;28;20021;-84
2021/10/14 00:07:52;;;;;;;8.18;3.97;;;;;;;3.75;97.65;99708.84;5063908;28;20028;-84
2021/10/14 00:10:17;;;;;;;7.35;3.97;;;;;;;3.76;97.61;99710.59;5065060;28;20331;-84
2021/10/14 00:12:43;;;;;;;7.45;3.38;;;;;;;3.74;97.74;99707.06;5065059;28;20027;-84
2021/10/14 00:15:09;;;;;;;7.40;3.72;;;;;;;3.80;98.16;99722.84;5063606;28;20062;-84
2021/10/14 00:17:35;;;;;;;9.00;4.30;;;;;;;3.83;97.56;99717.69;5063776;28;20025;-84
2021/10/14 00:20:00;;;;;;;11.90;4.20;;;;;;;3.76;97.54;99713.19;5063157;28;20017;-84
2021/10/14 00:22:26;;;;;;;7.93;4.10;;;;;;;3.73;96.61;99707.91;5064302;28;20084;-84
2021/10/14 00:24:52;;;;;;;11.57;5.00;;;;;;;3.53;97.00;99703.94;5063661;28;20021;-84
2021/10/14 00:27:18;;;;;;;8.85;4.25;;;;;;;3.55;96.64;99703.97;5063435;28;20016;-84
2021/10/14 00:29:43;;;;;;;9.07;5.15;;;;;;;3.48;97.08;99702.94;5064719;28;20328;-84
2021/10/14 00:32:09;;;;;;;10.20;4.43;;;;;;;3.49;97.59;99699.50;5063515;28;20020;-84
2021/10/14 00:34:34;;;;;;;12.55;4.70;;;;;;;3.57;97.67;99689.25;5064565;28;20063;-84
2021/10/14 00:36:59;;;;;;;9.68;5.00;;;;;;;3.43;97.99;99688.94;5079912;28;20021;-84
2021/10/14 00:39:25;;;;;;;17.45;4.72;;;;;;;3.33;98.06;99686.94;5064526;28;20088;-84
2021/10/14 00:41:50;;;;;;;8.27;4.15;;;;;;;3.46;98.43;99693.31;5063244;28;20043;-84
2021/10/14 00:44:16;;;;;;;10.73;4.28;;;;;;;3.46;98.31;99686.41;5064477;28;20020;-84
2021/10/14 00:46:52;;;;;;;13.88;5.72;;;;;;;3.41;97.81;99679.31;5063036;28;20028;-84
2021/10/14 00:49:17;;;;;;;14.27;4.68;;;;;;;3.37;98.08;99680.97;5063258;28;20325;-84
2021/10/14 00:51:43;;;;;;;8.45;4.30;;;;;;;3.25;97.75;99675.44;5064329;28;20020;-84
2021/10/14 00:54:08;;;;;;;10.13;4.57;;;;;;;3.22;97.68;99687.47;5064251;28;20324;-84
2021/10/14 00:56:34;;;;;;;8.95;4.75;;;;;;;3.19;97.15;99688.28;5062963;28;20020;-84
2021/10/14 00:59:02;;;;;;;13.85;5.10;;;;;;;3.23;96.65;99702.28;5064141;28;20070;-84
2021/10/14 01:01:27;;;;;;;8.18;4.10;;;;;;;3.14;96.81;99695.09;5063133;28;20029;-84
2021/10/14 01:03:53;;;;;;;13.77;4.47;;;;;;;3.01;96.88;99687.78;5062615;28;20083;-84
2021/10/14 01:06:18;;;;;;;15.52;5.03;;;;;;;3.03;97.24;99698.22;5062831;28;20387;-84
2021/10/14 01:08:44;;;;;;;8.02;4.15;;;;;;;3.13;97.63;99706.34;5062931;28;20070;-84
2021/10/14 01:11:11;;;;;;;10.88;4.43;;;;;;;2.92;97.21;99697.97;5062875;28;20053;-84
2021/10/14 01:13:37;;;;;;;7.22;3.88;;;;;;;2.92;97.50;99708.38;5062652;28;20090;-84
2021/10/14 01:16:06;;;;;;;13.32;4.70;;;;;;;2.72;98.20;99699.09;5062811;28;20021;-84
2021/10/14 01:18:32;;;;;;;17.25;4.40;;;;;;;2.66;98.20;99708.47;5062082;28;20023;-84
2021/10/14 01:20:57;;;;;;;12.52;4.85;;;;;;;2.75;99.03;99699.19;5062262;28;20224;-84
2021/10/14 01:23:22;;;;;;;9.13;4.30;;;;;;;2.94;99.15;99692.81;5062566;28;20017;-84
2021/10/14 01:25:48;;;;;;;7.00;4.50;;;;;;;2.94;98.82;99691.06;5062391;28;20021;-84
2021/10/14 01:28:15;;;;;;;12.73;4.85;;;;;;;2.84;98.14;99688.16;5063485;28;20253;-84
2021/10/14 01:30:40;;;;;;;18.25;4.28;;;;;;;2.84;98.26;99683.84;5062512;28;20216;-84
2021/10/14 01:33:06;;;;;;;9.30;3.60;;;;;;;2.87;97.86;99683.94;5065198;28;20021;-84
2021/10/14 01:35:32;;;;;;;7.78;3.40;;;;;;;2.80;97.23;99676.81;5066446;28;20025;-84
2021/10/14 01:37:57;;;;;;;5.18;3.00;;;;;;;2.76;97.74;99680.19;5066483;28;20027;-84
2021/10/14 01:40:23;;;;;;;9.85;4.45;;;;;;;2.73;97.94;99680.09;5066396;28;20036;-84
2021/10/14 01:42:48;;;;;;;6.50;3.30;;;;;;;2.80;97.87;99682.03;5066436;28;20071;-84
2021/10/14 01:45:13;;;;;;;6.63;3.83;;;;;;;2.78;97.83;99668.09;5066511;28;20049;-84
2021/10/14 01:47:39;;;;;;;6.57;3.70;;;;;;;2.71;97.43;99668.75;5066250;28;20050;-84
2021/10/14 01:50:06;;;;;;;6.07;3.13;;;;;;;2.71;97.33;99671.38;5066119;28;20021;-84
2021/10/14 01:52:31;;;;;;;7.63;3.63;;;;;;;2.72;96.84;99665.31;5067436;28;20021;-84
2021/10/14 01:54:57;;;;;;;8.88;3.67;;;;;;;2.59;96.99;99663.22;5066290;28;20021;-84
2021/10/14 01:57:22;;;;;;;6.57;3.65;;;;;;;2.51;96.91;99669.94;5066090;28;20029;-84
2021/10/14 01:59:48;;;;;;;5.15;2.80;;;;;;;2.42;96.53;99658.38;5067364;28;20032;-84
2021/10/14 02:02:13;;;;;;;5.85;3.28;;;;;;;2.35;97.12;99654.75;5066700;28;20060;-84
2021/10/14 02:04:39;;;;;;;9.65;3.45;;;;;;;2.31;96.84;99660.66;5067149;28;20021;-84
2021/10/14 02:07:04;;;;;;;4.03;2.90;;;;;;;2.33;96.92;99661.59;5065860;28;20025;-84
2021/10/14 02:09:30;;;;;;;6.30;3.45;;;;;;;2.31;97.01;99663.25;5066931;28;20079;-84
2021/10/14 02:11:55;;;;;;;7.47;4.20;;;;;;;2.44;96.75;99659.31;5067044;28;20240;-84
2021/10/14 02:14:21;;;;;;;10.18;4.20;;;;;;;2.43;97.04;99658.41;5065823;28;20258;-84
2021/10/14 02:16:46;;;;;;;13.02;4.05;;;;;;;2.32;97.10;99658.94;5065744;28;20017;-84
2021/10/14 02:19:11;;;;;;;6.43;3.35;;;;;;;2.39;97.20;99660.88;5065722;28;20067;-84
2021/10/14 02:21:37;;;;;;;8.80;3.78;;;;;;;2.43;97.28;99663.63;5066743;28;20328;-84
2021/10/14 02:24:02;;;;;;;6.70;3.70;;;;;;;2.44;96.99;99665.41;5065708;28;20343;-84
2021/10/14 02:26:28;;;;;;;7.90;3.83;;;;;;;2.25;96.57;99657.91;5065611;28;20123;-84
2021/10/14 02:28:53;;;;;;;5.38;3.13;;;;;;;2.08;96.59;99656.50;5065459;28;20025;-84
2021/10/14 02:31:19;;;;;;;7.05;3.67;;;;;;;2.14;97.12;99660.19;5066757;28;20024;-84
2021/10/14 02:33:44;;;;;;;5.00;3.67;;;;;;;2.17;96.88;99669.78;5065493;28;20253;-84
2021/10/14 02:36:10;;;;;;;7.22;3.85;;;;;;;2.22;97.04;99670.81;5066611;28;20087;-84
2021/10/14 02:38:35;;;;;;;5.65;3.22;;;;;;;2.20;97.23;99665.56;5065293;28;20084;-84
2021/10/14 02:41:02;;;;;;;7.10;3.40;;;;;;;2.09;96.66;99660.88;5065317;28;20036;-84
2021/10/14 02:43:28;;;;;;;6.70;3.58;;;;;;;2.05;96.70;99657.31;5064189;28;20092;-84
2021/10/14 02:45:54;;;;;;;5.50;3.22;;;;;;;2.13;96.79;99667.94;5066273;28;20363;-84
2021/10/14 02:48:20;;;;;;;6.00;3.05;;;;;;;2.18;96.35;99669.81;5066366;28;20025;-84
2021/10/14 02:50:45;;;;;;;6.75;3.88;;;;;;;2.08;96.59;99669.50;5065287;28;20012;-84
2021/10/14 02:53:11;;;;;;;5.07;3.17;;;;;;;2.07;97.03;99670.34;5065199;28;20017;-84
2021/10/14 02:55:36;;;;;;;9.50;3.90;;;;;;;2.14;97.17;99672.28;5065092;28;20017;-84
2021/10/14 02:58:01;;;;;;;6.57;3.53;;;;;;;2.25;97.26;99673.50;5064929;28;20096;-84
2021/10/14 03:00:27;;;;;;;7.80;4.70;;;;;;;2.25;97.46;99679.56;5064897;28;20025;-84
2021/10/14 03:02:52;;;;;;;10.20;5.68;;;;;;;2.26;97.49;99664.84;5065887;28;20048;-84
2021/10/14 03:05:18;;;;;;;15.98;6.70;;;;;;;2.32;97.85;99675.44;5064663;28;20067;-84
2021/10/14 03:07:43;;;;;;;11.23;5.30;;;;;;;2.35;96.74;99677.22;5064946;28;20050;-84
2021/10/14 03:10:10;;;;;;;9.73;5.03;;;;;;;2.35;96.79;99672.03;5064867;28;20059;-84
2021/10/14 03:12:35;;;;;;;9.35;4.45;;;;;;;2.40;96.91;99665.25;5065753;28;20402;-84
2021/10/14 03:15:01;;;;;;;6.65;3.85;;;;;;;2.26;97.01;99672.66;5065760;28;20021;-84
2021/10/14 03:17:27;;;;;;;9.07;3.97;;;;;;;2.25;96.82;99668.31;5065827;28;20036;-84
2021/10/14 03:19:52;;;;;;;6.55;3.60;;;;;;;2.34;96.74;99667.69;5056342;28;20342;-84
2021/10/14 03:22:18;;;;;;;6.25;3.80;;;;;;;2.33;96.65;99659.00;5064658;28;20031;-84
2021/10/14 03:24:43;;;;;;;6.65;3.53;;;;;;;2.18;96.70;99661.13;5064449;28;20016;-84
2021/10/14 03:27:08;;;;;;;8.10;4.20;;;;;;;2.16;96.72;99652.44;5064526;28;20020;-84
2021/10/14 03:29:34;;;;;;;7.15;4.22;;;;;;;2.14;97.09;99662.78;5064526;28;20028;-84
2021/10/14 03:31:59;;;;;;;8.40;3.78;;;;;;;2.23;97.09;99659.56;5065307;28;20032;-84
2021/10/14 03:34:25;;;;;;;13.80;4.45;;;;;;;2.29;97.60;99670.16;5064410;28;20021;-84
2021/10/14 03:36:50;;;;;;;7.55;4.30;;;;;;;2.20;97.66;99669.88;5064125;28;20040;-84
2021/10/14 03:39:16;;;;;;;7.28;3.70;;;;;;;2.32;97.13;99672.84;5064430;28;20043;-84
2021/10/14 03:41:41;;;;;;;6.40;3.50;;;;;;;2.23;97.30;99663.06;5064099;28;20032;-84
2021/10/14 03:44:06;;;;;;;7.53;3.95;;;;;;;2.29;96.70;99664.94;5065448;28;20025;-84
2021/10/14 03:46:32;;;;;;;7.82;3.92;;;;;;;2.10;96.58;99663.53;5064066;28;20020;-84
2021/10/14 03:48:57;;;;;;;8.73;3.95;;;;;;;2.15;97.30;99661.03;5063927;28;20127;-84
2021/10/14 03:51:23;;;;;;;8.32;3.80;;;;;;;2.20;97.02;99668.16;5063907;28;20387;-84
2021/10/14 03:53:48;;;;;;;8.38;3.92;;;;;;;2.20;96.91;99669.88;5065298;28;20031;-84
2021/10/14 03:56:13;;;;;;;5.35;3.03;;;;;;;2.04;97.04;99667.66;5063752;28;20021;-84
2021/10/14 03:58:39;;;;;;;7.28;3.28;;;;;;;2.01;96.97;99657.16;5063915;28;20017;-84
2021/10/14 04:01:04;;;;;;;7.55;3.28;;;;;;;2.11;96.85;99672.19;5063770;28;20021;-87
2021/10/14 04:03:30;;;;;;;5.78;3.53;;;;;;;1.93;97.26;99669.91;5064756;28;20049;-87
2021/10/14 04:05:55;;;;;;;7.70;3.47;;;;;;;1.97;96.93;99673.50;5063678;28;20021;-84
2021/10/14 04:08:20;;;;;;;6.60;3.83;;;;;;;1.96;97.15;99680.38;5063828;28;20025;-84
2021/10/14 04:10:46;;;;;;;9.50;4.20;;;;;;;1.95;97.61;99677.75;5063691;28;20016;-84
2021/10/14 04:13:11;;;;;;;6.82;3.20;;;;;;;1.96;97.51;99676.91;5063549;28;20055;-84
2021/10/14 04:15:37;;;;;;;7.65;3.90;;;;;;;1.98;97.47;99680.44;5063531;28;20227;-84
2021/10/14 04:18:02;;;;;;;9.60;3.90;;;;;;;1.94;96.79;99676.00;5063575;28;20092;-84
2021/10/14 04:20:28;;;;;;;7.88;3.45;;;;;;;1.90;97.28;99674.13;5064384;28;20088;-84
2021/10/14 04:22:54;;;;;;;5.38;3.28;;;;;;;1.99;97.12;99672.69;5063709;28;20324;-88
2021/10/14 04:25:20;;;;;;;7.35;3.65;;;;;;;2.01;97.03;99673.63;5063199;28;20021;-84
2021/10/14 04:27:45;;;;;;;6.15;3.60;;;;;;;1.99;96.49;99675.28;5060940;28;20059;-84
2021/10/14 04:30:10;;;;;;;16.63;3.90;;;;;;;1.92;96.52;99677.63;5063270;28;20020;-84
2021/10/14 04:32:36;;;;;;;7.07;4.07;;;;;;;1.97;97.26;99676.09;5063170;28;20209;-84
2021/10/14 04:35:03;;;;;;;6.90;3.63;;;;;;;2.13;96.99;99680.91;5062904;28;20032;-84
2021/10/14 04:37:28;;;;;;;5.95;3.60;;;;;;;2.22;96.93;99679.44;5063694;28;20304;-83
2021/10/14 04:39:54;;;;;;;7.18;3.67;;;;;;;2.27;96.79;99671.81;5063888;28;20031;-84
2021/10/14 04:42:19;;;;;;;8.52;3.92;;;;;;;2.31;96.89;99671.03;5062591;28;20025;-84
2021/10/14 04:44:45;;;;;;;7.18;3.88;;;;;;;2.30;96.71;99671.91;5063960;28;20415;-84
2021/10/14 04:47:10;;;;;;;7.13;3.67;;;;;;;2.36;96.61;99676.38;5062192;28;20025;-84
2021/10/14 04:49:35;;;;;;;7.32;3.90;;;;;;;2.34;96.04;99680.66;5064351;28;20032;-84
2021/10/14 04:52:02;;;;;;;7.22;3.72;;;;;;;2.30;96.41;99674.50;5064138;28;20032;-84
2021/10/14 04:54:28;;;;;;;8.30;4.25;;;;;;;2.13;96.39;99683.50;5063095;28;20051;-84
2021/10/14 04:56:53;;;;;;;7.65;4.55;;;;;;;2.18;96.79;99676.72;5063101;28;20020;-84
2021/10/14 04:59:19;;;;;;;10.93;5.13;;;;;;;2.20;96.76;99680.25;5063070;28;20032;-84
2021/10/14 05:01:44;;;;;;;9.90;4.82;;;;;;;2.18;97.01;99688.00;5062735;28;20032;-84
2021/10/14 05:04:10;;;;;;;9.43;5.13;;;;;;;2.27;96.75;99684.78;5062967;28;20032;-84
2021/10/14 05:06:35;;;;;;;14.85;6.72;;;;;;;2.31;96.77;99689.22;5062405;28;20096;-84
2021/10/14 05:09:01;;;;;;;13.13;6.82;;;;;;;2.32;96.88;99685.81;5062923;28;20032;-84
2021/10/14 05:11:26;;;;;;;15.30;7.07;;;;;;;2.24;97.28;99687.28;5064028;28;20070;-84
2021/10/14 05:13:54;;;;;;;12.75;5.88;;;;;;;2.52;97.60;99682.06;5062887;28;20052;-84
2021/10/14 05:16:19;;;;;;;19.70;7.18;;;;;;;2.61;96.98;99673.66;5062872;28;20052;-84
2021/10/14 05:18:45;;;;;;;9.23;4.50;;;;;;;2.66;96.58;99678.13;5062857;28;20029;-84
2021/10/14 05:21:10;;;;;;;14.02;5.80;;;;;;;2.57;96.71;99672.72;5063855;28;20042;-84
2021/10/14 05:23:36;;;;;;;8.27;5.18;;;;;;;2.56;96.53;99678.72;5062713;28;20029;-84
2021/10/14 05:26:01;;;;;;;8.40;3.80;;;;;;;2.72;96.33;99699.09;5062711;28;20032;-84
2021/10/14 05:28:27;;;;;;;8.07;4.22;;;;;;;2.87;96.44;99707.34;5062681;28;20024;-84
2021/10/14 05:30:52;;;;;;;9.38;4.70;;;;;;;2.89;97.03;99703.09;5062683;28;20028;-84
2021/10/14 05:33:17;;;;;;;10.32;5.10;;;;;;;3.04;96.60;99707.81;5062651;28;20021;-84
2021/10/14 05:35:43;;;;;;;8.30;4.32;;;;;;;3.04;95.83;99703.47;5063779;28;20335;-84
2021/10/14 05:38:09;;;;;;;7.03;3.97;;;;;;;2.98;95.23;99703.34;5062626;28;20053;-84
2021/10/14 05:40:34;;;;;;;10.82;3.92;;;;;;;2.94;95.58;99711.88;5063637;28;20025;-84
2021/10/14 05:43:02;;;;;;;8.00;4.40;;;;;;;3.03;95.62;99709.53;5062599;28;20103;-84
2021/10/14 05:45:27;;;;;;;12.05;3.92;;;;;;;3.06;95.33;99722.63;5062534;28;20035;-84
2021/10/14 05:47:53;;;;;;;11.45;4.68;;;;;;;2.89;95.69;99705.69;5062530;28;20044;-84
2021/10/14 05:50:18;;;;;;;11.07;5.43;;;;;;;2.83;96.17;99708.09;5063625;28;20024;-84
2021/10/14 05:52:43;;;;;;;9.90;5.45;;;;;;;2.88;96.62;99700.44;5062519;28;20044;-84
2021/10/14 05:55:09;;;;;;;9.93;5.53;;;;;;;2.93;97.11;99707.53;5062459;28;20032;-84
2021/10/14 05:57:34;;;;;;;16.10;9.00;;;;;;;3.25;98.62;99714.47;5062417;28;20032;-84
2021/10/14 06:00:00;;;;;;;20.05;11.38;;;;;;;3.59;100.00;99722.31;5063435;28;20025;-84
2021/10/14 06:02:25;;;;;;;24.60;11.60;;;;;;;3.81;100.00;99731.53;5062174;28;20048;-84
2021/10/14 06:04:50;;;;;;;26.40;11.68;;;;;;;4.01;100.00;99725.97;5062362;28;20021;-84
2021/10/14 06:07:17;;;;;;;16.15;8.60;;;;;;;4.15;100.00;99723.69;5063508;28;20324;-84
2021/10/14 06:09:43;;;;;;;16.02;7.57;;;;;;;4.21;99.00;99734.25;5062339;28;20032;-84
2021/10/14 06:12:08;;;;;;;32.63;12.88;;;;;;;4.22;97.96;99739.50;5062303;28;20021;-84
2021/10/14 06:14:33;;;;;;;37.00;14.55;;;;;;;4.13;96.19;99708.03;5063399;28;20324;-84
2021/10/14 06:16:59;;;;;;;34.25;12.38;;;;;;;4.15;96.19;99732.38;5062222;28;20031;-84
2021/10/14 06:19:24;;;;;;;25.98;10.43;;;;;;;4.26;96.20;99736.13;5065230;28;20025;-84
2021/10/14 06:21:50;;;;;;;27.35;8.90;;;;;;;4.34;95.99;99716.31;5067090;28;20032;-84
2021/10/14 06:24:15;;;;;;;14.65;6.18;;;;;;;4.38;95.23;99715.56;5066005;28;20021;-84
2021/10/14 06:26:41;;;;;;;32.05;13.35;;;;;;;4.01;95.35;99707.72;5065938;28;20021;-84
2021/10/14 06:29:06;;;;;;;27.08;11.27;;;;;;;4.05;95.61;99714.75;5067051;28;20027;-84
2021/10/14 06:31:31;;;;;;;27.70;10.65;;;;;;;4.03;96.58;99711.25;5065836;28;20059;-84
2021/10/14 06:33:57;;;;;;;24.42;9.65;;;;;;;4.16;96.30;99708.09;5066927;28;20025;-84
2021/10/14 06:36:23;;;;;;;26.25;10.95;;;;;;;4.27;96.02;99706.59;5065751;28;20097;-83
2021/10/14 06:38:48;;;;;;;22.17;9.35;;;;;;;4.33;96.29;99708.44;5065667;28;20091;-84
2021/10/14 06:41:15;;;;;;;19.17;9.73;;;;;;;4.62;97.58;99709.94;5065587;28;20025;-84
2021/10/14 06:43:41;;;;;;;21.15;9.60;;;;;;;4.88;97.85;99713.13;5065600;28;20403;-84
2021/10/14 06:46:07;;;;;;;24.55;9.27;;;;;;;4.93;97.75;99721.94;5065526;28;20055;-84
2021/10/14 06:48:32;;;;;;;21.98;10.15;;;;;;;4.90;97.97;99720.13;5066655;28;20032;-84
2021/10/14 06:50:59;;;;;;;18.90;9.93;;;;;;;5.18;98.67;99713.69;5065453;28;20044;-84
2021/10/14 06:53:25;;;;;;;19.65;11.73;;;;;;;5.50;99.47;99717.78;5065403;28;20029;-84
2021/10/14 06:55:50;;;;;;;19.88;12.43;;;;;;;5.67;99.94;99719.84;5066481;28;20216;-84
2021/10/14 06:58:16;;;;;;;17.13;11.38;;;;;;;5.83;99.59;99702.72;5066498;28;20025;-84
2021/10/14 07:00:42;;;;;;;18.48;11.80;;;;;;;5.96;99.64;99704.69;5066333;28;20036;-84
2021/10/14 07:03:07;;;;;;;18.38;11.45;;;;;;;6.18;99.17;99712.91;5066168;28;20119;-84
2021/10/14 07:05:33;;;;;;;18.52;10.00;;;;;;;6.35;98.76;99710.50;5066380;28;20259;-84
2021/10/14 07:07:58;;;;;;;22.15;10.82;;;;;;;6.49;98.42;99703.75;5065175;28;20027;-84
2021/10/14 07:10:24;;;;;;;18.15;11.73;;;;;;;6.58;98.23;99703.84;5065115;28;20021;-84
2021/10/14 07:12:50;;;;;;;18.58;11.25;;;;;;;6.75;97.55;99709.31;5065071;28;20115;-84
2021/10/14 07:15:15;;;;;;;19.80;11.38;;;;;;;6.97;97.27;99708.72;5065034;28;20032;-84
2021/10/14 07:17:41;;;;;;;18.13;10.88;;;;;;;7.05;96.75;99713.19;5064975;28;20025;-84
2021/10/14 07:20:07;;;;;;;17.35;10.68;;;;;;;7.29;96.35;99716.09;5066038;28;20095;-84
2021/10/14 07:22:32;;;;;;;20.58;11.32;;;;;;;7.48;96.14;99720.66;5064851;28;20024;-84
2021/10/14 07:24:59;;;;;;;18.45;11.50;;;;;;;7.66;95.09;99730.44;5065995;28;20031;-84
2021/10/14 07:27:24;;;;;;;17.83;10.10;;;;;;;7.76;93.94;99717.44;5064792;28;20343;-84
2021/10/14 07:29:50;;;;;;;16.05;9.52;;;;;;;7.78;94.61;99718.31;5064160;28;20021;-84
2021/10/14 07:32:15;;;;;;;19.30;11.07;;;;;;;7.81;94.64;99720.06;5064751;28;20024;-84
2021/10/14 07:34:41;;;;;;;17.88;11.02;;;;;;;7.87;95.08;99715.78;5065801;28;20224;-84
2021/10/14 07:37:06;;;;;;;20.38;12.10;;;;;;;7.84;95.42;99710.50;5065767;28;20029;-84
2021/10/14 07:39:33;;;;;;;19.92;11.48;;;;;;;7.78;95.03;99715.69;5064564;28;20255;-84
2021/10/14 07:41:58;;;;;;;21.55;11.30;;;;;;;7.82;95.80;99722.69;5064452;28;20088;-84
2021/10/14 07:44:24;;;;;;;17.85;11.20;;;;;;;7.92;95.61;99729.81;5064484;28;20021;-84
2021/10/14 07:46:50;;;;;;;26.70;12.60;;;;;;;7.89;95.40;99714.06;5064400;28;20025;-84
2021/10/14 07:49:18;;;;;;;24.42;13.48;;;;;;;7.87;95.28;99721.00;5065534;28;20035;-84
2021/10/14 07:51:44;;;;;;;23.35;12.50;;;;;;;7.98;95.25;99724.59;5065476;28;20317;-84
2021/10/14 07:54:10;;;;;;;22.63;13.20;;;;;;;8.14;95.12;99731.69;5064311;28;20060;-84
2021/10/14 07:56:35;;;;;;;21.88;12.43;;;;;;;8.24;95.11;99730.97;5065382;28;20029;-84
2021/10/14 07:59:01;;;;;;;22.88;12.95;;;;;;;8.38;94.99;99737.19;5064157;28;20378;-84
2021/10/14 08:01:26;;;;;;;23.52;12.35;;;;;;;8.43;94.70;99740.72;5064026;28;20021;-84
2021/10/14 08:03:52;;;;;;;23.48;13.52;;;;;;;8.49;95.04;99730.25;5063941;28;20053;-84
2021/10/14 08:06:18;;;;;;;21.77;12.27;;;;;;;8.58;94.21;99734.69;5065195;28;20025;-84
2021/10/14 08:08:44;;;;;;;24.65;13.18;;;;;;;8.73;94.46;99746.16;5064025;28;20020;-84
2021/10/14 08:11:10;;;;;;;22.15;12.55;;;;;;;8.80;94.08;99736.56;5065089;28;20190;-84
2021/10/14 08:13:36;;;;;;;19.70;11.68;;;;;;;8.97;93.68;99729.63;5064994;28;20035;-84
2021/10/14 08:16:03;;;;;;;19.00;10.90;;;;;;;9.04;93.15;99731.41;5063861;28;20343;-84
2021/10/14 08:18:29;;;;;;;21.15;12.75;;;;;;;9.07;93.45;99730.53;5063742;28;20329;-84
2021/10/14 08:20:56;;;;;;;20.40;11.88;;;;;;;9.35;92.71;99727.13;5064817;28;20025;-84
2021/10/14 08:23:23;;;;;;;21.00;11.98;;;;;;;9.52;92.23;99730.72;5064877;28;20027;-84
2021/10/14 08:25:49;;;;;;;19.25;11.57;;;;;;;9.75;90.92;99729.84;5063684;28;20059;-84
2021/10/14 08:28:16;;;;;;;20.42;12.63;;;;;;;9.73;92.26;99717.59;5064777;28;20317;-84
2021/10/14 08:30:42;;;;;;;22.50;11.77;;;;;;;9.80;91.62;99721.97;5064709;28;20025;-84
2021/10/14 08:33:08;;;;;;;21.02;12.13;;;;;;;9.90;90.92;99716.72;5063540;28;20021;-85
2021/10/14 08:35:37;;;;;;;23.60;12.77;;;;;;;10.10;92.55;99724.66;5063465;28;20111;-85
2021/10/14 08:38:04;;;;;;;20.35;11.40;;;;;;;10.22;91.03;99719.41;5063409;28;20051;-85
2021/10/14 08:40:29;;;;;;;20.55;11.55;;;;;;;10.24;90.41;99725.50;5064484;28;20028;-85
2021/10/14 08:43:05;;;;;;;21.58;11.55;;;;;;;10.43;90.18;99722.00;5063662;28;20259;-85
2021/10/14 08:45:35;;;;;;;19.95;11.82;;;;;;;10.61;89.64;99721.97;5064454;28;20028;-85
2021/10/14 08:48:02;;;;;;;22.50;11.73;;;;;;;10.79;88.74;99716.66;5063285;28;20094;-85
2021/10/14 08:50:28;;;;;;;21.52;12.50;;;;;;;11.52;87.19;99718.06;5064412;28;20017;-85
2021/10/14 08:52:53;;;;;;;20.40;12.05;;;;;;;11.51;87.63;99716.31;5063205;28;20025;-85
2021/10/14 08:55:19;;;;;;;22.58;11.80;;;;;;;12.02;85.78;99715.97;5064356;28;20055;-85
2021/10/14 08:57:45;;;;;;;19.27;11.43;;;;;;;12.11;84.34;99715.91;5063133;28;20316;-85
2021/10/14 09:00:11;;;;;;;18.13;11.23;;;;;;;12.11;85.29;99708.00;5062997;28;20025;-85
2021/10/14 09:02:36;;;;;;;28.52;13.57;;;;;;;11.89;85.35;99750.38;5062764;28;20116;-85
2021/10/14 09:05:08;;;;;;;21.55;12.50;;;;;;;11.91;85.62;99744.22;5064142;28;20098;-85
2021/10/14 09:07:34;;;;;;;22.63;12.25;;;;;;;11.94;85.43;99806.63;5063045;28;20044;-85
2021/10/14 09:10:03;;;;;;;19.40;11.77;;;;;;;11.96;85.31;99742.41;5062929;28;20024;-85
2021/10/14 09:12:36;;;;;;;22.73;13.40;;;;;;;12.04;88.81;99734.44;5062907;28;20024;-85
2021/10/14 09:15:04;;;;;;;23.83;12.05;;;;;;;12.02;88.10;99715.97;5062907;28;20017;-85
2021/10/14 09:17:36;;;;;;;23.25;12.02;;;;;;;11.97;87.51;99716.91;5062855;28;20020;-85
2021/10/14 09:20:29;;;;;;;23.33;13.20;;;;;;;11.73;88.01;99717.97;5062832;28;20021;-85
2021/10/14 09:23:01;;;;;;;23.70;11.57;;;;;;;11.97;87.92;99716.91;5063959;28;20035;-85
2021/10/14 09:25:34;;;;;;;25.83;13.15;;;;;;;11.64;88.70;99712.75;5062833;28;20021;-85
2021/10/14 09:28:15;;;;;;;25.70;13.63;;;;;;;11.77;88.14;99709.13;5062722;28;20050;-85
2021/10/14 09:30:58;;;;;;;27.95;14.57;;;;;;;11.71;89.62;99705.69;5062666;28;20021;-85
2021/10/14 09:33:38;;;;;;;32.42;14.30;;;;;;;11.82;87.96;99704.72;5062744;28;20251;-85
2021/10/14 09:36:24;;;;;;;28.75;13.32;;;;;;;11.74;87.56;99701.25;5063830;28;20032;-85
2021/10/14 09:38:54;;;;;;;27.38;15.85;;;;;;;11.72;89.00;99716.22;5063822;28;20024;-85
2021/10/14 09:41:25;;;;;;;26.27;13.77;;;;;;;12.03;88.13;99712.47;5062471;28;20028;-85
2021/10/14 09:43:54;;;;;;;24.73;14.73;;;;;;;12.05;88.78;99715.06;5062570;28;20095;-85
2021/10/14 09:46:35;;;;;;;29.98;15.90;;;;;;;12.42;87.29;99727.94;5063713;28;20036;-85
2021/10/14 09:49:01;;;;;;;23.20;13.13;;;;;;;12.59;85.32;99733.06;5062499;28;20024;-85
2021/10/14 09:51:26;;;;;;;21.67;13.82;;;;;;;12.14;87.81;99729.09;5063655;28;20332;-85
2021/10/14 09:53:52;;;;;;;26.27;15.13;;;;;;;12.20;86.63;99715.84;5064758;28;20028;-85
2021/10/14 09:56:19;;;;;;;26.98;15.68;;;;;;;12.34;87.90;99713.94;5066512;28;20091;-85
2021/10/14 09:58:44;;;;;;;29.40;15.95;;;;;;;12.54;86.68;99717.28;5067561;28;20066;-85
2021/10/14 10:01:11;;;;;;;27.70;15.05;;;;;;;12.91;85.16;99718.63;5066377;28;20024;-85
2021/10/14 10:03:38;;;;;;;31.52;15.15;;;;;;;13.01;84.18;99712.34;5067280;28;20112;-85
2021/10/14 10:06:06;;;;;;;27.00;15.05;;;;;;;12.82;84.67;99713.44;5066324;28;20032;-85
2021/10/14 10:08:42;;;;;;;27.45;14.85;;;;;;;13.02;85.05;99706.19;5066273;28;20024;-85
2021/10/14 10:11:11;;;;;;;32.00;16.55;;;;;;;13.19;83.39;99713.03;5066267;28;20044;-85
2021/10/14 10:13:39;;;;;;;26.85;15.90;;;;;;;13.41;84.19;99717.16;5067296;28;20032;-85
2021/10/14 10:16:19;;;;;;;29.88;17.02;;;;;;;13.50;83.14;99709.06;5067314;28;20025;-85
2021/10/14 10:18:46;;;;;;;29.88;16.38;;;;;;;13.44;82.51;99703.91;5066122;28;20021;-85
2021/10/14 10:21:30;;;;;;;31.63;17.40;;;;;;;13.43;83.06;99707.41;5065996;28;20313;-85
2021/10/14 10:24:02;;;;;;;28.30;16.65;;;;;;;13.44;81.50;99714.47;5066024;28;20021;-85
2021/10/14 10:26:36;;;;;;;27.92;17.40;;;;;;;13.43;82.83;99712.72;5067078;28;20023;-85
2021/10/14 10:29:16;;;;;;;31.42;16.63;;;;;;;13.42;83.19;99710.97;5065872;28;20065;-85
2021/10/14 10:31:55;;;;;;;29.35;16.30;;;;;;;13.44;81.56;99701.25;5065861;28;20013;-85
2021/10/14 10:34:39;;;;;;;29.88;15.55;;;;;;;13.75;81.21;99702.53;5066990;28;20021;-85
2021/10/14 10:37:59;;;;;;;32.20;17.55;;;;;;;13.75;81.82;99697.25;5066883;28;20024;-85
2021/10/14 10:40:18;;;;;;;28.63;17.08;;;;;;;13.76;82.89;99696.38;5066537;28;20052;-85
2021/10/14 10:42:55;;;;;;;29.25;17.38;;;;;;;13.80;81.34;99684.84;5065635;28;20032;-85
2021/10/14 10:45:24;;;;;;;31.55;16.02;;;;;;;13.94;81.99;99686.34;5065620;28;20250;-85
2021/10/14 10:47:52;;;;;;;34.38;16.92;;;;;;;14.04;78.97;99676.47;5065574;28;20043;-85
2021/10/14 10:50:23;;;;;;;28.67;17.83;;;;;;;14.03;80.42;99675.63;5065571;28;20427;-85
2021/10/14 10:53:13;;;;;;;30.73;17.83;;;;;;;13.91;80.91;99674.94;5065534;28;20088;-85
2021/10/14 10:55:56;;;;;;;32.40;17.63;;;;;;;14.30;80.32;99679.63;5066665;28;20244;-85
2021/10/14 10:58:27;;;;;;;27.05;16.42;;;;;;;14.43;78.72;99675.84;5065385;28;20132;-85
2021/10/14 11:00:53;;;;;;;36.53;18.90;;;;;;;14.40;80.87;99675.91;5066392;28;20031;-85
2021/10/14 11:03:24;;;;;;;34.05;17.95;;;;;;;14.41;79.00;99672.34;5065048;28;20328;-85
2021/10/14 11:06:00;;;;;;;35.42;18.20;;;;;;;14.37;78.65;99668.84;5065472;28;20316;-85
2021/10/14 11:08:27;;;;;;;33.85;17.83;;;;;;;14.31;79.11;99660.16;5065218;28;20422;-85
2021/10/14 11:11:02;;;;;;;33.75;16.98;;;;;;;14.39;79.54;99663.53;5065085;28;20025;-85
2021/10/14 11:13:33;;;;;;;35.55;17.27;;;;;;;14.50;76.94;99650.97;5065083;28;20025;-85
2021/10/14 11:16:00;;;;;;;39.37;20.13;;;;;;;14.43;78.88;99655.50;5065079;28;20063;-85
2021/10/14 11:18:27;;;;;;;34.45;17.30;;;;;;;14.65;77.56;99645.41;5066110;28;20017;-85
2021/10/14 11:20:58;;;;;;;35.67;17.30;;;;;;;14.79;75.09;99645.97;5064891;28;20099;-85
2021/10/14 11:23:26;;;;;;;40.30;18.50;;;;;;;14.84;76.53;99638.81;5064918;28;20032;-85
2021/10/14 11:26:13;;;;;;;32.17;15.90;;;;;;;15.05;74.81;99633.06;5065965;28;20024;-85
2021/10/14 11:28:53;;;;;;;38.85;16.77;;;;;;;15.14;73.97;99630.22;5064857;28;20020;-85
2021/10/14 11:31:33;;;;;;;40.33;17.95;;;;;;;15.16;74.38;99628.41;5064758;28;20213;-85